sensor_id;sensor_type;location;lat;lon;timestamp;P1;durP1;ratioP1;P2;durP2;ratioP2
5939;SDS011;2995;-31.998;115.906;2023-07-30T00:00:13;20.20;;;9.83;;
5939;SDS011;2995;-31.998;115.906;2023-07-30T00:02:45;13.03;;;9.63;;
5939;SDS011;2995;-31.998;115.906;2023-07-30T00:05:16;13.17;;;9.47;;
5939;SDS011;2995;-31.998;115.906;2023-07-30T00:07:47;13.80;;;9.97;;
5939;SDS011;2995;-31.998;115.906;2023-07-30T00:10:20;15.53;;;9.13;;
5939;SDS011;2995;-31.998;115.906;2023-07-30T00:12:51;28.17;;;10.23;;
5939;SDS011;2995;-31.998;115.906;2023-07-30T00:15:24;11.50;;;10.30;;
5939;SDS011;2995;-31.998;115.906;2023-07-30T00:17:55;12.90;;;10.23;;
5939;SDS011;2995;-31.998;115.906;2023-07-30T00:20:27;13.17;;;10.37;;
5939;SDS011;2995;-31.998;115.906;2023-07-30T00:22:58;11.80;;;10.20;;
5939;SDS011;2995;-31.998;115.906;2023-07-30T00:25:29;17.73;;;10.40;;
5939;SDS011;2995;-31.998;115.906;2023-07-30T00:28:00;12.60;;;11.30;;
5939;SDS011;2995;-31.998;115.906;2023-07-30T00:30:34;15.40;;;12.00;;
5939;SDS011;2995;-31.998;115.906;2023-07-30T00:33:05;16.67;;;10.90;;
5939;SDS011;2995;-31.998;115.906;2023-07-30T00:35:36;12.77;;;10.30;;
5939;SDS011;2995;-31.998;115.906;2023-07-30T00:38:07;14.10;;;10.57;;
5939;SDS011;2995;-31.998;115.906;2023-07-30T00:40:41;11.57;;;10.30;;
5939;SDS011;2995;-31.998;115.906;2023-07-30T00:43:13;11.70;;;10.60;;
5939;SDS011;2995;-31.998;115.906;2023-07-30T00:45:46;12.17;;;10.97;;
5939;SDS011;2995;-31.998;115.906;2023-07-30T00:48:18;12.50;;;11.20;;
5939;SDS011;2995;-31.998;115.906;2023-07-30T00:50:49;13.77;;;12.37;;
5939;SDS011;2995;-31.998;115.906;2023-07-30T00:53:21;15.07;;;12.23;;
5939;SDS011;2995;-31.998;115.906;2023-07-30T00:55:53;15.03;;;12.83;;
5939;SDS011;2995;-31.998;115.906;2023-07-30T00:58:25;13.50;;;11.80;;
5939;SDS011;2995;-31.998;115.906;2023-07-30T01:00:58;11.70;;;10.50;;
5939;SDS011;2995;-31.998;115.906;2023-07-30T01:03:31;12.20;;;10.90;;
5939;SDS011;2995;-31.998;115.906;2023-07-30T01:06:03;13.53;;;10.20;;
5939;SDS011;2995;-31.998;115.906;2023-07-30T01:08:34;15.37;;;10.53;;
5939;SDS011;2995;-31.998;115.906;2023-07-30T01:11:05;12.50;;;11.20;;
5939;SDS011;2995;-31.998;115.906;2023-07-30T01:13:38;11.60;;;10.23;;
5939;SDS011;2995;-31.998;115.906;2023-07-30T01:16:12;12.73;;;10.60;;
5939;SDS011;2995;-31.998;115.906;2023-07-30T01:18:44;11.70;;;10.47;;
5939;SDS011;2995;-31.998;115.906;2023-07-30T01:21:17;13.00;;;10.80;;
5939;SDS011;2995;-31.998;115.906;2023-07-30T01:23:48;15.30;;;10.07;;
5939;SDS011;2995;-31.998;115.906;2023-07-30T01:26:20;14.10;;;10.00;;
5939;SDS011;2995;-31.998;115.906;2023-07-30T01:28:55;16.60;;;11.83;;
5939;SDS011;2995;-31.998;115.906;2023-07-30T01:31:27;11.17;;;9.67;;
5939;SDS011;2995;-31.998;115.906;2023-07-30T01:34:02;11.90;;;9.50;;
5939;SDS011;2995;-31.998;115.906;2023-07-30T01:36:36;8.90;;;7.10;;
5939;SDS011;2995;-31.998;115.906;2023-07-30T01:39:09;11.90;;;7.80;;
5939;SDS011;2995;-31.998;115.906;2023-07-30T01:41:40;8.77;;;7.93;;
5939;SDS011;2995;-31.998;115.906;2023-07-30T01:44:12;7.47;;;6.53;;
5939;SDS011;2995;-31.998;115.906;2023-07-30T01:46:43;8.33;;;6.13;;
5939;SDS011;2995;-31.998;115.906;2023-07-30T01:49:14;5.93;;;4.70;;
5939;SDS011;2995;-31.998;115.906;2023-07-30T01:51:47;6.40;;;5.10;;
5939;SDS011;2995;-31.998;115.906;2023-07-30T01:54:19;9.47;;;3.03;;
5939;SDS011;2995;-31.998;115.906;2023-07-30T01:56:50;4.03;;;3.67;;
5939;SDS011;2995;-31.998;115.906;2023-07-30T01:59:22;2.73;;;2.50;;
5939;SDS011;2995;-31.998;115.906;2023-07-30T02:01:53;4.70;;;4.03;;
5939;SDS011;2995;-31.998;115.906;2023-07-30T02:04:24;4.23;;;3.20;;
5939;SDS011;2995;-31.998;115.906;2023-07-30T02:06:57;5.87;;;4.30;;
5939;SDS011;2995;-31.998;115.906;2023-07-30T02:09:28;3.97;;;3.50;;
5939;SDS011;2995;-31.998;115.906;2023-07-30T02:12:00;3.50;;;2.63;;
5939;SDS011;2995;-31.998;115.906;2023-07-30T02:14:31;4.00;;;1.87;;
5939;SDS011;2995;-31.998;115.906;2023-07-30T02:17:02;3.00;;;2.03;;
5939;SDS011;2995;-31.998;115.906;2023-07-30T02:19:33;2.47;;;1.80;;
5939;SDS011;2995;-31.998;115.906;2023-07-30T02:22:07;3.10;;;2.00;;
5939;SDS011;2995;-31.998;115.906;2023-07-30T02:24:38;6.33;;;2.10;;
5939;SDS011;2995;-31.998;115.906;2023-07-30T02:27:09;3.50;;;2.13;;
5939;SDS011;2995;-31.998;115.906;2023-07-30T02:29:40;2.43;;;1.80;;
5939;SDS011;2995;-31.998;115.906;2023-07-30T02:32:12;4.07;;;2.00;;
5939;SDS011;2995;-31.998;115.906;2023-07-30T02:34:43;2.33;;;2.13;;
5939;SDS011;2995;-31.998;115.906;2023-07-30T02:37:16;3.37;;;1.83;;
5939;SDS011;2995;-31.998;115.906;2023-07-30T02:39:47;4.13;;;2.00;;
5939;SDS011;2995;-31.998;115.906;2023-07-30T02:42:19;3.73;;;1.90;;
5939;SDS011;2995;-31.998;115.906;2023-07-30T02:44:50;8.03;;;2.67;;
5939;SDS011;2995;-31.998;115.906;2023-07-30T02:47:22;5.40;;;1.63;;
5939;SDS011;2995;-31.998;115.906;2023-07-30T02:49:53;3.33;;;1.37;;
5939;SDS011;2995;-31.998;115.906;2023-07-30T02:52:26;1.97;;;1.23;;
5939;SDS011;2995;-31.998;115.906;2023-07-30T02:54:57;4.63;;;1.57;;
5939;SDS011;2995;-31.998;115.906;2023-07-30T02:57:29;2.10;;;1.23;;
5939;SDS011;2995;-31.998;115.906;2023-07-30T03:00:00;3.10;;;1.30;;
5939;SDS011;2995;-31.998;115.906;2023-07-30T03:02:32;1.60;;;1.03;;
5939;SDS011;2995;-31.998;115.906;2023-07-30T03:05:03;2.37;;;1.00;;
5939;SDS011;2995;-31.998;115.906;2023-07-30T03:07:37;1.23;;;1.10;;
5939;SDS011;2995;-31.998;115.906;2023-07-30T03:10:09;2.00;;;1.20;;
5939;SDS011;2995;-31.998;115.906;2023-07-30T03:12:40;3.33;;;1.10;;
5939;SDS011;2995;-31.998;115.906;2023-07-30T03:15:11;1.63;;;0.80;;
5939;SDS011;2995;-31.998;115.906;2023-07-30T03:17:42;4.63;;;0.97;;
5939;SDS011;2995;-31.998;115.906;2023-07-30T03:20:14;1.77;;;0.73;;
5939;SDS011;2995;-31.998;115.906;2023-07-30T03:22:47;1.10;;;0.70;;
5939;SDS011;2995;-31.998;115.906;2023-07-30T03:25:18;1.67;;;0.97;;
5939;SDS011;2995;-31.998;115.906;2023-07-30T03:27:50;1.97;;;0.80;;
5939;SDS011;2995;-31.998;115.906;2023-07-30T03:30:21;2.17;;;0.97;;
5939;SDS011;2995;-31.998;115.906;2023-07-30T03:32:52;3.03;;;0.80;;
5939;SDS011;2995;-31.998;115.906;2023-07-30T03:35:23;1.10;;;0.80;;
5939;SDS011;2995;-31.998;115.906;2023-07-30T03:37:57;0.90;;;0.80;;
5939;SDS011;2995;-31.998;115.906;2023-07-30T03:40:28;2.90;;;1.07;;
5939;SDS011;2995;-31.998;115.906;2023-07-30T03:43:00;1.80;;;1.00;;
5939;SDS011;2995;-31.998;115.906;2023-07-30T03:45:31;2.47;;;1.00;;
5939;SDS011;2995;-31.998;115.906;2023-07-30T03:48:03;1.33;;;1.00;;
5939;SDS011;2995;-31.998;115.906;2023-07-30T03:50:34;1.60;;;0.70;;
5939;SDS011;2995;-31.998;115.906;2023-07-30T03:53:07;3.47;;;1.17;;
5939;SDS011;2995;-31.998;115.906;2023-07-30T03:55:39;1.20;;;1.00;;
5939;SDS011;2995;-31.998;115.906;2023-07-30T03:58:10;2.23;;;1.17;;
5939;SDS011;2995;-31.998;115.906;2023-07-30T04:00:41;3.53;;;1.00;;
5939;SDS011;2995;-31.998;115.906;2023-07-30T04:03:13;2.17;;;1.00;;
5939;SDS011;2995;-31.998;115.906;2023-07-30T04:05:44;3.33;;;1.03;;
5939;SDS011;2995;-31.998;115.906;2023-07-30T04:08:18;1.80;;;0.90;;
5939;SDS011;2995;-31.998;115.906;2023-07-30T04:10:49;2.40;;;1.10;;
5939;SDS011;2995;-31.998;115.906;2023-07-30T04:13:21;1.40;;;1.00;;
5939;SDS011;2995;-31.998;115.906;2023-07-30T04:15:52;2.40;;;1.10;;
5939;SDS011;2995;-31.998;115.906;2023-07-30T04:18:23;1.40;;;1.00;;
5939;SDS011;2995;-31.998;115.906;2023-07-30T04:20:54;1.13;;;1.00;;
5939;SDS011;2995;-31.998;115.906;2023-07-30T04:23:27;1.37;;;0.80;;
5939;SDS011;2995;-31.998;115.906;2023-07-30T04:25:59;1.10;;;0.87;;
5939;SDS011;2995;-31.998;115.906;2023-07-30T04:28:30;2.27;;;0.83;;
5939;SDS011;2995;-31.998;115.906;2023-07-30T04:31:01;0.97;;;0.80;;
5939;SDS011;2995;-31.998;115.906;2023-07-30T04:33:32;2.23;;;0.90;;
5939;SDS011;2995;-31.998;115.906;2023-07-30T04:36:04;2.43;;;0.93;;
5939;SDS011;2995;-31.998;115.906;2023-07-30T04:38:37;6.20;;;1.20;;
5939;SDS011;2995;-31.998;115.906;2023-07-30T04:41:08;1.20;;;0.80;;
5939;SDS011;2995;-31.998;115.906;2023-07-30T04:43:40;2.03;;;0.87;;
5939;SDS011;2995;-31.998;115.906;2023-07-30T04:46:11;2.13;;;0.80;;
5939;SDS011;2995;-31.998;115.906;2023-07-30T04:48:42;1.43;;;0.90;;
5939;SDS011;2995;-31.998;115.906;2023-07-30T04:51:14;3.27;;;1.37;;
5939;SDS011;2995;-31.998;115.906;2023-07-30T04:53:47;2.30;;;0.77;;
5939;SDS011;2995;-31.998;115.906;2023-07-30T04:56:18;1.20;;;0.80;;
5939;SDS011;2995;-31.998;115.906;2023-07-30T04:58:51;1.63;;;1.00;;
5939;SDS011;2995;-31.998;115.906;2023-07-30T05:01:23;1.33;;;0.90;;
5939;SDS011;2995;-31.998;115.906;2023-07-30T05:03:54;1.43;;;0.70;;
5939;SDS011;2995;-31.998;115.906;2023-07-30T05:06:25;1.87;;;0.70;;
5939;SDS011;2995;-31.998;115.906;2023-07-30T05:08:59;1.80;;;0.87;;
5939;SDS011;2995;-31.998;115.906;2023-07-30T05:11:30;2.80;;;0.70;;
5939;SDS011;2995;-31.998;115.906;2023-07-30T05:14:01;1.13;;;0.70;;
5939;SDS011;2995;-31.998;115.906;2023-07-30T05:16:32;5.70;;;1.10;;
5939;SDS011;2995;-31.998;115.906;2023-07-30T05:19:04;1.20;;;1.00;;
5939;SDS011;2995;-31.998;115.906;2023-07-30T05:21:35;1.80;;;1.37;;
5939;SDS011;2995;-31.998;115.906;2023-07-30T05:24:08;1.10;;;0.70;;
5939;SDS011;2995;-31.998;115.906;2023-07-30T05:26:39;2.47;;;0.87;;
5939;SDS011;2995;-31.998;115.906;2023-07-30T05:29:10;2.03;;;1.00;;
5939;SDS011;2995;-31.998;115.906;2023-07-30T05:31:42;3.77;;;0.90;;
5939;SDS011;2995;-31.998;115.906;2023-07-30T05:34:13;1.20;;;1.00;;
5939;SDS011;2995;-31.998;115.906;2023-07-30T05:36:44;3.13;;;1.00;;
5939;SDS011;2995;-31.998;115.906;2023-07-30T05:39:17;1.97;;;0.87;;
5939;SDS011;2995;-31.998;115.906;2023-07-30T05:41:49;2.90;;;1.10;;
5939;SDS011;2995;-31.998;115.906;2023-07-30T05:44:20;2.63;;;1.13;;
5939;SDS011;2995;-31.998;115.906;2023-07-30T05:46:51;4.87;;;1.43;;
5939;SDS011;2995;-31.998;115.906;2023-07-30T05:49:23;3.57;;;0.80;;
5939;SDS011;2995;-31.998;115.906;2023-07-30T05:51:54;1.13;;;0.80;;
5939;SDS011;2995;-31.998;115.906;2023-07-30T05:54:27;6.80;;;1.00;;
5939;SDS011;2995;-31.998;115.906;2023-07-30T05:56:58;1.00;;;0.80;;
5939;SDS011;2995;-31.998;115.906;2023-07-30T05:59:30;0.80;;;0.70;;
5939;SDS011;2995;-31.998;115.906;2023-07-30T06:02:02;2.03;;;1.03;;
5939;SDS011;2995;-31.998;115.906;2023-07-30T06:04:34;2.50;;;1.13;;
5939;SDS011;2995;-31.998;115.906;2023-07-30T06:07:05;4.17;;;1.40;;
5939;SDS011;2995;-31.998;115.906;2023-07-30T06:09:38;4.23;;;1.70;;
5939;SDS011;2995;-31.998;115.906;2023-07-30T06:12:09;2.97;;;1.37;;
5939;SDS011;2995;-31.998;115.906;2023-07-30T06:14:40;2.10;;;1.13;;
5939;SDS011;2995;-31.998;115.906;2023-07-30T06:17:12;2.47;;;1.40;;
5939;SDS011;2995;-31.998;115.906;2023-07-30T06:19:43;5.80;;;1.10;;
5939;SDS011;2995;-31.998;115.906;2023-07-30T06:22:14;1.53;;;0.90;;
5939;SDS011;2995;-31.998;115.906;2023-07-30T06:24:47;4.37;;;1.03;;
5939;SDS011;2995;-31.998;115.906;2023-07-30T06:27:19;2.80;;;0.80;;
5939;SDS011;2995;-31.998;115.906;2023-07-30T06:29:50;3.27;;;1.10;;
5939;SDS011;2995;-31.998;115.906;2023-07-30T06:32:21;1.80;;;1.00;;
5939;SDS011;2995;-31.998;115.906;2023-07-30T06:34:53;3.17;;;1.13;;
5939;SDS011;2995;-31.998;115.906;2023-07-30T06:37:24;3.07;;;0.90;;
5939;SDS011;2995;-31.998;115.906;2023-07-30T06:39:57;2.33;;;1.00;;
5939;SDS011;2995;-31.998;115.906;2023-07-30T06:42:30;3.23;;;1.10;;
5939;SDS011;2995;-31.998;115.906;2023-07-30T06:45:01;5.57;;;1.13;;
5939;SDS011;2995;-31.998;115.906;2023-07-30T06:47:33;2.03;;;0.83;;
5939;SDS011;2995;-31.998;115.906;2023-07-30T06:50:04;2.40;;;0.90;;
5939;SDS011;2995;-31.998;115.906;2023-07-30T06:52:36;2.30;;;1.00;;
5939;SDS011;2995;-31.998;115.906;2023-07-30T06:55:09;2.40;;;0.97;;
5939;SDS011;2995;-31.998;115.906;2023-07-30T06:57:41;2.10;;;0.80;;
5939;SDS011;2995;-31.998;115.906;2023-07-30T07:00:12;1.57;;;0.97;;
5939;SDS011;2995;-31.998;115.906;2023-07-30T07:02:47;2.10;;;1.20;;
5939;SDS011;2995;-31.998;115.906;2023-07-30T07:05:19;1.20;;;0.80;;
5939;SDS011;2995;-31.998;115.906;2023-07-30T07:07:50;1.73;;;0.73;;
5939;SDS011;2995;-31.998;115.906;2023-07-30T07:10:24;2.93;;;1.30;;
5939;SDS011;2995;-31.998;115.906;2023-07-30T07:12:55;1.10;;;1.00;;
5939;SDS011;2995;-31.998;115.906;2023-07-30T07:15:26;1.30;;;0.87;;
5939;SDS011;2995;-31.998;115.906;2023-07-30T07:17:58;2.00;;;0.90;;
5939;SDS011;2995;-31.998;115.906;2023-07-30T07:20:29;1.40;;;0.90;;
5939;SDS011;2995;-31.998;115.906;2023-07-30T07:23:00;1.30;;;0.70;;
5939;SDS011;2995;-31.998;115.906;2023-07-30T07:25:33;2.50;;;0.93;;
5939;SDS011;2995;-31.998;115.906;2023-07-30T07:28:05;2.00;;;0.80;;
5939;SDS011;2995;-31.998;115.906;2023-07-30T07:30:36;1.07;;;0.80;;
5939;SDS011;2995;-31.998;115.906;2023-07-30T07:33:07;1.50;;;0.90;;
5939;SDS011;2995;-31.998;115.906;2023-07-30T07:35:39;2.90;;;1.00;;
5939;SDS011;2995;-31.998;115.906;2023-07-30T07:38:10;2.87;;;0.97;;
5939;SDS011;2995;-31.998;115.906;2023-07-30T07:40:43;2.20;;;1.30;;
5939;SDS011;2995;-31.998;115.906;2023-07-30T07:43:15;1.73;;;1.30;;
5939;SDS011;2995;-31.998;115.906;2023-07-30T07:45:46;3.30;;;1.10;;
5939;SDS011;2995;-31.998;115.906;2023-07-30T07:48:17;1.40;;;0.90;;
5939;SDS011;2995;-31.998;115.906;2023-07-30T07:50:48;4.20;;;1.00;;
5939;SDS011;2995;-31.998;115.906;2023-07-30T07:53:20;2.17;;;0.80;;
5939;SDS011;2995;-31.998;115.906;2023-07-30T07:55:53;2.43;;;0.97;;
5939;SDS011;2995;-31.998;115.906;2023-07-30T07:58:25;1.37;;;0.80;;
5939;SDS011;2995;-31.998;115.906;2023-07-30T08:00:57;4.97;;;1.30;;
5939;SDS011;2995;-31.998;115.906;2023-07-30T08:03:28;2.30;;;1.17;;
5939;SDS011;2995;-31.998;115.906;2023-07-30T08:06:00;1.57;;;0.90;;
5939;SDS011;2995;-31.998;115.906;2023-07-30T08:08:31;3.27;;;1.30;;
5939;SDS011;2995;-31.998;115.906;2023-07-30T08:11:07;2.90;;;1.33;;
5939;SDS011;2995;-31.998;115.906;2023-07-30T08:13:38;4.13;;;0.97;;
5939;SDS011;2995;-31.998;115.906;2023-07-30T08:16:09;3.47;;;0.90;;
5939;SDS011;2995;-31.998;115.906;2023-07-30T08:18:41;2.07;;;1.00;;
5939;SDS011;2995;-31.998;115.906;2023-07-30T08:21:12;1.30;;;1.00;;
5939;SDS011;2995;-31.998;115.906;2023-07-30T08:23:45;1.47;;;1.00;;
5939;SDS011;2995;-31.998;115.906;2023-07-30T08:26:18;1.60;;;0.90;;
5939;SDS011;2995;-31.998;115.906;2023-07-30T08:28:50;4.17;;;1.20;;
5939;SDS011;2995;-31.998;115.906;2023-07-30T08:31:21;1.10;;;0.80;;
5939;SDS011;2995;-31.998;115.906;2023-07-30T08:33:52;1.53;;;0.70;;
5939;SDS011;2995;-31.998;115.906;2023-07-30T08:36:24;0.90;;;0.70;;
5939;SDS011;2995;-31.998;115.906;2023-07-30T08:38:55;1.43;;;0.73;;
5939;SDS011;2995;-31.998;115.906;2023-07-30T08:41:29;6.60;;;0.80;;
5939;SDS011;2995;-31.998;115.906;2023-07-30T08:44:00;1.77;;;1.23;;
5939;SDS011;2995;-31.998;115.906;2023-07-30T08:46:31;3.43;;;0.90;;
5939;SDS011;2995;-31.998;115.906;2023-07-30T08:49:02;2.47;;;1.20;;
5939;SDS011;2995;-31.998;115.906;2023-07-30T08:51:34;1.90;;;1.10;;
5939;SDS011;2995;-31.998;115.906;2023-07-30T08:54:08;1.10;;;0.90;;
5939;SDS011;2995;-31.998;115.906;2023-07-30T08:56:43;4.70;;;1.83;;
5939;SDS011;2995;-31.998;115.906;2023-07-30T08:59:15;2.13;;;1.10;;
5939;SDS011;2995;-31.998;115.906;2023-07-30T09:01:47;2.67;;;1.23;;
5939;SDS011;2995;-31.998;115.906;2023-07-30T09:04:21;1.47;;;1.20;;
5939;SDS011;2995;-31.998;115.906;2023-07-30T09:06:52;2.10;;;1.07;;
5939;SDS011;2995;-31.998;115.906;2023-07-30T09:09:24;1.20;;;0.90;;
5939;SDS011;2995;-31.998;115.906;2023-07-30T09:11:57;3.90;;;1.53;;
5939;SDS011;2995;-31.998;115.906;2023-07-30T09:14:29;4.03;;;1.47;;
5939;SDS011;2995;-31.998;115.906;2023-07-30T09:17:00;2.50;;;0.90;;
5939;SDS011;2995;-31.998;115.906;2023-07-30T09:19:33;3.80;;;2.00;;
5939;SDS011;2995;-31.998;115.906;2023-07-30T09:22:05;2.90;;;1.50;;
5939;SDS011;2995;-31.998;115.906;2023-07-30T09:24:37;3.87;;;1.60;;
5939;SDS011;2995;-31.998;115.906;2023-07-30T09:27:19;1.80;;;1.50;;
5939;SDS011;2995;-31.998;115.906;2023-07-30T09:29:52;3.70;;;1.30;;
5939;SDS011;2995;-31.998;115.906;2023-07-30T09:32:26;5.90;;;1.77;;
5939;SDS011;2995;-31.998;115.906;2023-07-30T09:35:00;7.77;;;1.90;;
5939;SDS011;2995;-31.998;115.906;2023-07-30T09:37:36;2.10;;;1.50;;
5939;SDS011;2995;-31.998;115.906;2023-07-30T09:40:08;5.03;;;1.70;;
5939;SDS011;2995;-31.998;115.906;2023-07-30T09:42:44;3.43;;;2.07;;
5939;SDS011;2995;-31.998;115.906;2023-07-30T09:45:21;1.93;;;1.47;;
5939;SDS011;2995;-31.998;115.906;2023-07-30T09:47:53;1.83;;;1.70;;
5939;SDS011;2995;-31.998;115.906;2023-07-30T09:50:25;4.73;;;4.33;;
5939;SDS011;2995;-31.998;115.906;2023-07-30T09:52:56;9.90;;;9.13;;
5939;SDS011;2995;-31.998;115.906;2023-07-30T09:55:30;33.47;;;30.07;;
5939;SDS011;2995;-31.998;115.906;2023-07-30T09:58:03;183.67;;;116.77;;
5939;SDS011;2995;-31.998;115.906;2023-07-30T10:00:37;288.60;;;161.40;;
5939;SDS011;2995;-31.998;115.906;2023-07-30T10:03:09;230.93;;;131.80;;
5939;SDS011;2995;-31.998;115.906;2023-07-30T10:05:41;237.70;;;143.93;;
5939;SDS011;2995;-31.998;115.906;2023-07-30T10:08:16;295.83;;;195.07;;
5939;SDS011;2995;-31.998;115.906;2023-07-30T10:10:50;155.07;;;118.53;;
5939;SDS011;2995;-31.998;115.906;2023-07-30T10:13:25;84.37;;;63.10;;
5939;SDS011;2995;-31.998;115.906;2023-07-30T10:15:57;25.43;;;17.50;;
5939;SDS011;2995;-31.998;115.906;2023-07-30T10:18:33;28.87;;;20.50;;
5939;SDS011;2995;-31.998;115.906;2023-07-30T10:21:08;80.67;;;43.17;;
5939;SDS011;2995;-31.998;115.906;2023-07-30T10:23:45;100.57;;;72.27;;
5939;SDS011;2995;-31.998;115.906;2023-07-30T10:26:19;24.70;;;20.63;;
5939;SDS011;2995;-31.998;115.906;2023-07-30T10:31:54;30.80;;;27.70;;
5939;SDS011;2995;-31.998;115.906;2023-07-30T10:34:27;18.70;;;16.87;;
5939;SDS011;2995;-31.998;115.906;2023-07-30T10:37:17;6.67;;;4.80;;
5939;SDS011;2995;-31.998;115.906;2023-07-30T10:39:50;2.20;;;1.97;;
5939;SDS011;2995;-31.998;115.906;2023-07-30T10:42:22;4.20;;;2.30;;
5939;SDS011;2995;-31.998;115.906;2023-07-30T10:44:55;2.90;;;2.00;;
5939;SDS011;2995;-31.998;115.906;2023-07-30T10:47:28;2.13;;;1.93;;
5939;SDS011;2995;-31.998;115.906;2023-07-30T10:50:03;2.30;;;1.90;;
5939;SDS011;2995;-31.998;115.906;2023-07-30T10:52:38;2.90;;;1.90;;
5939;SDS011;2995;-31.998;115.906;2023-07-30T10:55:09;3.13;;;2.37;;
5939;SDS011;2995;-31.998;115.906;2023-07-30T10:57:40;3.33;;;3.03;;
5939;SDS011;2995;-31.998;115.906;2023-07-30T11:00:15;3.10;;;2.80;;
5939;SDS011;2995;-31.998;115.906;2023-07-30T11:02:53;5.90;;;2.80;;
5939;SDS011;2995;-31.998;115.906;2023-07-30T11:05:24;6.60;;;2.60;;
5939;SDS011;2995;-31.998;115.906;2023-07-30T11:07:56;5.20;;;3.67;;
5939;SDS011;2995;-31.998;115.906;2023-07-30T11:10:27;4.97;;;3.97;;
5939;SDS011;2995;-31.998;115.906;2023-07-30T11:12:59;4.93;;;4.53;;
5939;SDS011;2995;-31.998;115.906;2023-07-30T11:15:32;5.40;;;4.57;;
5939;SDS011;2995;-31.998;115.906;2023-07-30T11:18:09;4.97;;;4.10;;
5939;SDS011;2995;-31.998;115.906;2023-07-30T11:20:41;6.60;;;3.80;;
5939;SDS011;2995;-31.998;115.906;2023-07-30T11:23:21;5.00;;;2.80;;
5939;SDS011;2995;-31.998;115.906;2023-07-30T11:25:53;3.10;;;2.80;;
5939;SDS011;2995;-31.998;115.906;2023-07-30T11:28:28;3.83;;;3.47;;
5939;SDS011;2995;-31.998;115.906;2023-07-30T11:31:02;4.77;;;4.37;;
5939;SDS011;2995;-31.998;115.906;2023-07-30T11:33:34;5.10;;;4.60;;
5939;SDS011;2995;-31.998;115.906;2023-07-30T11:36:06;5.30;;;4.50;;
5939;SDS011;2995;-31.998;115.906;2023-07-30T11:38:39;3.60;;;2.90;;
5939;SDS011;2995;-31.998;115.906;2023-07-30T11:41:11;9.37;;;6.30;;
5939;SDS011;2995;-31.998;115.906;2023-07-30T11:43:44;10.60;;;8.43;;
5939;SDS011;2995;-31.998;115.906;2023-07-30T11:46:18;18.07;;;15.13;;
5939;SDS011;2995;-31.998;115.906;2023-07-30T11:48:50;47.87;;;39.90;;
5939;SDS011;2995;-31.998;115.906;2023-07-30T11:51:22;49.10;;;40.57;;
5939;SDS011;2995;-31.998;115.906;2023-07-30T11:53:54;35.30;;;30.43;;
5939;SDS011;2995;-31.998;115.906;2023-07-30T11:56:28;20.40;;;17.23;;
5939;SDS011;2995;-31.998;115.906;2023-07-30T11:59:00;7.37;;;6.70;;
5939;SDS011;2995;-31.998;115.906;2023-07-30T12:01:36;5.00;;;4.03;;
5939;SDS011;2995;-31.998;115.906;2023-07-30T12:04:07;3.90;;;3.60;;
5939;SDS011;2995;-31.998;115.906;2023-07-30T12:06:39;11.77;;;8.70;;
5939;SDS011;2995;-31.998;115.906;2023-07-30T12:09:12;14.80;;;12.10;;
5939;SDS011;2995;-31.998;115.906;2023-07-30T12:11:47;11.80;;;9.60;;
5939;SDS011;2995;-31.998;115.906;2023-07-30T12:14:19;18.97;;;15.97;;
5939;SDS011;2995;-31.998;115.906;2023-07-30T12:16:54;18.70;;;15.43;;
5939;SDS011;2995;-31.998;115.906;2023-07-30T12:19:25;15.50;;;13.37;;
5939;SDS011;2995;-31.998;115.906;2023-07-30T12:21:56;9.53;;;7.40;;
5939;SDS011;2995;-31.998;115.906;2023-07-30T12:24:27;7.30;;;5.97;;
5939;SDS011;2995;-31.998;115.906;2023-07-30T12:26:59;6.43;;;5.73;;
5939;SDS011;2995;-31.998;115.906;2023-07-30T12:29:30;8.30;;;6.17;;
5939;SDS011;2995;-31.998;115.906;2023-07-30T12:32:03;8.93;;;7.70;;
5939;SDS011;2995;-31.998;115.906;2023-07-30T12:34:35;8.70;;;7.80;;
5939;SDS011;2995;-31.998;115.906;2023-07-30T12:37:06;7.00;;;6.43;;
5939;SDS011;2995;-31.998;115.906;2023-07-30T12:39:38;10.10;;;8.60;;
5939;SDS011;2995;-31.998;115.906;2023-07-30T12:42:09;10.00;;;8.30;;
5939;SDS011;2995;-31.998;115.906;2023-07-30T12:44:40;10.23;;;9.20;;
5939;SDS011;2995;-31.998;115.906;2023-07-30T12:47:14;11.23;;;8.40;;
5939;SDS011;2995;-31.998;115.906;2023-07-30T12:49:45;11.23;;;10.13;;
5939;SDS011;2995;-31.998;115.906;2023-07-30T12:52:16;16.80;;;14.87;;
5939;SDS011;2995;-31.998;115.906;2023-07-30T12:54:47;18.03;;;14.70;;
5939;SDS011;2995;-31.998;115.906;2023-07-30T12:57:19;16.67;;;14.67;;
5939;SDS011;2995;-31.998;115.906;2023-07-30T12:59:50;15.93;;;13.70;;
5939;SDS011;2995;-31.998;115.906;2023-07-30T13:02:23;19.10;;;15.40;;
5939;SDS011;2995;-31.998;115.906;2023-07-30T13:04:54;22.50;;;17.00;;
5939;SDS011;2995;-31.998;115.906;2023-07-30T13:07:26;19.13;;;16.67;;
5939;SDS011;2995;-31.998;115.906;2023-07-30T13:10:04;19.00;;;17.00;;
5939;SDS011;2995;-31.998;115.906;2023-07-30T13:12:36;17.17;;;15.33;;
5939;SDS011;2995;-31.998;115.906;2023-07-30T13:15:08;13.90;;;12.47;;
5939;SDS011;2995;-31.998;115.906;2023-07-30T13:17:41;13.57;;;12.17;;
5939;SDS011;2995;-31.998;115.906;2023-07-30T13:20:12;12.13;;;11.03;;
5939;SDS011;2995;-31.998;115.906;2023-07-30T13:22:43;12.43;;;11.33;;
5939;SDS011;2995;-31.998;115.906;2023-07-30T13:25:15;11.37;;;9.77;;
5939;SDS011;2995;-31.998;115.906;2023-07-30T13:27:46;13.90;;;10.40;;
5939;SDS011;2995;-31.998;115.906;2023-07-30T13:30:21;13.07;;;10.53;;
5939;SDS011;2995;-31.998;115.906;2023-07-30T13:32:54;15.30;;;13.73;;
5939;SDS011;2995;-31.998;115.906;2023-07-30T13:35:25;18.77;;;15.27;;
5939;SDS011;2995;-31.998;115.906;2023-07-30T13:37:57;17.50;;;14.50;;
5939;SDS011;2995;-31.998;115.906;2023-07-30T13:40:28;12.53;;;10.10;;
5939;SDS011;2995;-31.998;115.906;2023-07-30T13:42:59;14.70;;;12.00;;
5939;SDS011;2995;-31.998;115.906;2023-07-30T13:45:31;13.53;;;11.70;;
5939;SDS011;2995;-31.998;115.906;2023-07-30T13:48:04;11.50;;;10.30;;
5939;SDS011;2995;-31.998;115.906;2023-07-30T13:50:35;9.00;;;7.70;;
5939;SDS011;2995;-31.998;115.906;2023-07-30T13:53:07;10.80;;;9.70;;
5939;SDS011;2995;-31.998;115.906;2023-07-30T13:55:39;11.73;;;9.37;;
5939;SDS011;2995;-31.998;115.906;2023-07-30T13:58:10;8.90;;;8.10;;
5939;SDS011;2995;-31.998;115.906;2023-07-30T14:00:41;8.83;;;7.77;;
5939;SDS011;2995;-31.998;115.906;2023-07-30T14:03:14;9.93;;;8.90;;
5939;SDS011;2995;-31.998;115.906;2023-07-30T14:05:45;10.50;;;9.17;;
5939;SDS011;2995;-31.998;115.906;2023-07-30T14:08:17;11.60;;;10.30;;
5939;SDS011;2995;-31.998;115.906;2023-07-30T14:10:48;9.20;;;8.40;;
5939;SDS011;2995;-31.998;115.906;2023-07-30T14:13:19;10.67;;;9.60;;
5939;SDS011;2995;-31.998;115.906;2023-07-30T14:15:50;12.50;;;11.27;;
5939;SDS011;2995;-31.998;115.906;2023-07-30T14:18:23;19.30;;;14.27;;
5939;SDS011;2995;-31.998;115.906;2023-07-30T14:20:55;12.30;;;11.07;;
5939;SDS011;2995;-31.998;115.906;2023-07-30T14:23:26;19.80;;;14.17;;
5939;SDS011;2995;-31.998;115.906;2023-07-30T14:25:58;18.13;;;13.77;;
5939;SDS011;2995;-31.998;115.906;2023-07-30T14:28:29;13.80;;;12.40;;
5939;SDS011;2995;-31.998;115.906;2023-07-30T14:31:01;14.63;;;11.97;;
5939;SDS011;2995;-31.998;115.906;2023-07-30T14:33:34;18.23;;;14.90;;
5939;SDS011;2995;-31.998;115.906;2023-07-30T14:36:05;14.70;;;13.20;;
5939;SDS011;2995;-31.998;115.906;2023-07-30T14:38:37;17.73;;;13.40;;
5939;SDS011;2995;-31.998;115.906;2023-07-30T14:41:08;13.70;;;12.40;;
5939;SDS011;2995;-31.998;115.906;2023-07-30T14:43:39;13.90;;;12.60;;
5939;SDS011;2995;-31.998;115.906;2023-07-30T14:46:11;14.63;;;13.10;;
5939;SDS011;2995;-31.998;115.906;2023-07-30T14:48:44;14.63;;;13.30;;
5939;SDS011;2995;-31.998;115.906;2023-07-30T14:51:15;17.40;;;14.87;;
5939;SDS011;2995;-31.998;115.906;2023-07-30T14:53:46;15.30;;;13.70;;
5939;SDS011;2995;-31.998;115.906;2023-07-30T14:56:18;16.50;;;13.30;;